Defne-s — TCTI5 — position and weather

sailwx.info

Track history (hours):
 
Tides and Currents Weather Stations Pressure Air Temp Water Temp Dewpoint Dewpoint Depression Visibility Wind Speed Wind Dir Waves Ship Positions

Defne-s

Last reported at 2016-Jul-09 17:18 UTC. Time now 2016-Jul-25 02:29 UTC.
Position N 16°32' W 062°02'.
Warning: this ship's position is 15 days out of date.

Length 109 m; draft 6 m.

Type: Tanker. MMSI: 271002639.

Date/timePositionNaut miles runAvg speedWind from/ knotsBaromVisibWave heightAir tempDewpointWater temp
2016-Jul-09 17:18N 16°32' W 062°02'810.1
2016-Jul-09 16:32N 16°39' W 062°00'9 9.2
2016-Jul-09 15:33N 16°48' W 062°00'9 9.4
2016-Jul-09 14:33N 16°58' W 062°00'10 9.7
2016-Jul-09 13:33N 17°07' W 061°60'7 7.3
2016-Jul-09 12:33N 17°09' W 061°52'0 0.0
2016-Jul-09 11:27N 17°09' W 061°52'0 0.0
2016-Jul-09 10:33N 17°09' W 061°52'0 0.0
2016-Jul-09 09:33N 17°09' W 061°52'0 0.0
2016-Jul-09 08:33N 17°09' W 061°52'0 0.0
2016-Jul-09 07:33N 17°09' W 061°52'0 0.0
2016-Jul-09 06:33N 17°09' W 061°52'0 0.0
2016-Jul-09 04:33N 17°09' W 061°52'0 0.0
2016-Jul-09 03:33N 17°09' W 061°52'0 0.0
2016-Jul-09 02:33N 17°09' W 061°52'0 0.0
2016-Jul-09 01:33N 17°09' W 061°52'0 0.0
2016-Jul-09 00:33N 17°09' W 061°52'0 0.0
2016-Jul-08 23:30N 17°09' W 061°52'0 0.0
2016-Jul-08 22:33N 17°09' W 061°52'0 0.0
2016-Jul-08 21:33N 17°09' W 061°52'0 0.0
2016-Jul-08 20:33N 17°09' W 061°52'0 0.0
2016-Jul-08 19:30N 17°09' W 061°52'0 0.0
2016-Jul-08 18:33N 17°09' W 061°52'0 0.0
2016-Jul-08 15:18N 17°09' W 061°52'0 0.0
2016-Jul-08 14:33N 17°09' W 061°52'0 0.0
2016-Jul-08 13:33N 17°09' W 061°52'0 0.0
2016-Jul-08 12:33N 17°09' W 061°52'0 0.0
2016-Jul-08 11:33N 17°09' W 061°52'0 0.0
2016-Jul-08 10:33N 17°09' W 061°52'0 0.0
2016-Jul-08 09:30N 17°09' W 061°52'0 0.0
2016-Jul-08 08:33N 17°09' W 061°52'0 0.0
2016-Jul-08 07:33N 17°09' W 061°52'0 0.0
2016-Jul-08 06:33N 17°09' W 061°52'0 0.0
2016-Jul-08 04:33N 17°09' W 061°52'0 0.0
2016-Jul-08 03:33N 17°09' W 061°52'0 0.0
2016-Jul-08 02:30N 17°09' W 061°52'0 0.0
2016-Jul-08 01:33N 17°09' W 061°52'0 0.0
2016-Jul-08 00:33N 17°09' W 061°52'0 0.0
2016-Jul-07 23:33N 17°09' W 061°52'0 0.0
2016-Jul-07 22:33N 17°09' W 061°52'0 0.0
2016-Jul-07 21:33N 17°09' W 061°52'0 0.0
2016-Jul-07 20:33N 17°09' W 061°52'0 0.0
2016-Jul-07 19:33N 17°09' W 061°52'0 0.0
2016-Jul-07 18:33N 17°09' W 061°52'0 0.0
2016-Jul-07 17:33N 17°09' W 061°52'0 0.0
2016-Jul-07 16:33N 17°09' W 061°52'0 0.0
2016-Jul-07 15:33N 17°09' W 061°52'0 0.0
2016-Jul-07 14:33N 17°09' W 061°52'0 0.0
2016-Jul-07 13:33N 17°09' W 061°52'1 1.4
2016-Jul-07 12:33N 17°09' W 061°54'1 1.1
2016-Jul-07 11:32N 17°09' W 061°55'0 0.0
2016-Jul-07 10:32N 17°09' W 061°55'0 0.0
2016-Jul-07 09:32N 17°09' W 061°55'0 0.0
2016-Jul-07 08:32N 17°09' W 061°55'0 0.0
2016-Jul-07 07:32N 17°09' W 061°55'0 0.0
2016-Jul-07 06:32N 17°09' W 061°55'0 0.0
2016-Jul-07 05:32N 17°09' W 061°55'0 0.0
2016-Jul-07 04:32N 17°09' W 061°55'0 0.0
2016-Jul-07 03:32N 17°09' W 061°55'1 0.8
2016-Jul-07 02:33N 17°09' W 061°56'8 8.5
2016-Jul-07 01:33N 17°06' W 062°04'1010.4
2016-Jul-07 00:33N 16°59' W 062°11'10 9.9
2016-Jul-06 23:33N 16°52' W 062°19'1010.0
2016-Jul-06 22:33N 16°45' W 062°27'1010.1
2016-Jul-06 21:33N 16°39' W 062°34'1010.1
2016-Jul-06 20:33N 16°32' W 062°42'  
Track history (hours):
 
Tides and Currents Weather Stations Pressure Air Temp Water Temp Dewpoint Dewpoint Depression Visibility Wind Speed Wind Dir Waves Ship Positions

Defne-s

Last reported at 2016-Jul-09 17:18 UTC. Time now 2016-Jul-25 02:29 UTC.
Position N 16°32' W 062°02'.
Warning: this ship's position is 15 days out of date.

Length 109 m; draft 6 m.

Type: Tanker. MMSI: 271002639.

Date/timePositionNaut miles runAvg speedWind from/ knotsBaromVisibWave heightAir tempDewpointWater temp
2016-Jul-09 17:18N 16°32' W 062°02'810.1
2016-Jul-09 16:32N 16°39' W 062°00'9 9.2
2016-Jul-09 15:33N 16°48' W 062°00'9 9.4
2016-Jul-09 14:33N 16°58' W 062°00'10 9.7
2016-Jul-09 13:33N 17°07' W 061°60'7 7.3
2016-Jul-09 12:33N 17°09' W 061°52'0 0.0
2016-Jul-09 11:27N 17°09' W 061°52'0 0.0
2016-Jul-09 10:33N 17°09' W 061°52'0 0.0
2016-Jul-09 09:33N 17°09' W 061°52'0 0.0
2016-Jul-09 08:33N 17°09' W 061°52'0 0.0
2016-Jul-09 07:33N 17°09' W 061°52'0 0.0
2016-Jul-09 06:33N 17°09' W 061°52'0 0.0
2016-Jul-09 04:33N 17°09' W 061°52'0 0.0
2016-Jul-09 03:33N 17°09' W 061°52'0 0.0
2016-Jul-09 02:33N 17°09' W 061°52'0 0.0
2016-Jul-09 01:33N 17°09' W 061°52'0 0.0
2016-Jul-09 00:33N 17°09' W 061°52'0 0.0
2016-Jul-08 23:30N 17°09' W 061°52'0 0.0
2016-Jul-08 22:33N 17°09' W 061°52'0 0.0
2016-Jul-08 21:33N 17°09' W 061°52'0 0.0
2016-Jul-08 20:33N 17°09' W 061°52'0 0.0
2016-Jul-08 19:30N 17°09' W 061°52'0 0.0
2016-Jul-08 18:33N 17°09' W 061°52'0 0.0
2016-Jul-08 15:18N 17°09' W 061°52'0 0.0
2016-Jul-08 14:33N 17°09' W 061°52'0 0.0
2016-Jul-08 13:33N 17°09' W 061°52'0 0.0
2016-Jul-08 12:33N 17°09' W 061°52'0 0.0
2016-Jul-08 11:33N 17°09' W 061°52'0 0.0
2016-Jul-08 10:33N 17°09' W 061°52'0 0.0
2016-Jul-08 09:30N 17°09' W 061°52'0 0.0
2016-Jul-08 08:33N 17°09' W 061°52'0 0.0
2016-Jul-08 07:33N 17°09' W 061°52'0 0.0
2016-Jul-08 06:33N 17°09' W 061°52'0 0.0
2016-Jul-08 04:33N 17°09' W 061°52'0 0.0
2016-Jul-08 03:33N 17°09' W 061°52'0 0.0
2016-Jul-08 02:30N 17°09' W 061°52'0 0.0
2016-Jul-08 01:33N 17°09' W 061°52'0 0.0
2016-Jul-08 00:33N 17°09' W 061°52'0 0.0
2016-Jul-07 23:33N 17°09' W 061°52'0 0.0
2016-Jul-07 22:33N 17°09' W 061°52'0 0.0
2016-Jul-07 21:33N 17°09' W 061°52'0 0.0
2016-Jul-07 20:33N 17°09' W 061°52'0 0.0
2016-Jul-07 19:33N 17°09' W 061°52'0 0.0
2016-Jul-07 18:33N 17°09' W 061°52'0 0.0
2016-Jul-07 17:33N 17°09' W 061°52'0 0.0
2016-Jul-07 16:33N 17°09' W 061°52'0 0.0
2016-Jul-07 15:33N 17°09' W 061°52'0 0.0
2016-Jul-07 14:33N 17°09' W 061°52'0 0.0
2016-Jul-07 13:33N 17°09' W 061°52'1 1.4
2016-Jul-07 12:33N 17°09' W 061°54'1 1.1
2016-Jul-07 11:32N 17°09' W 061°55'0 0.0
2016-Jul-07 10:32N 17°09' W 061°55'0 0.0
2016-Jul-07 09:32N 17°09' W 061°55'0 0.0
2016-Jul-07 08:32N 17°09' W 061°55'0 0.0
2016-Jul-07 07:32N 17°09' W 061°55'0 0.0
2016-Jul-07 06:32N 17°09' W 061°55'0 0.0
2016-Jul-07 05:32N 17°09' W 061°55'0 0.0
2016-Jul-07 04:32N 17°09' W 061°55'0 0.0
2016-Jul-07 03:32N 17°09' W 061°55'1 0.8
2016-Jul-07 02:33N 17°09' W 061°56'8 8.5
2016-Jul-07 01:33N 17°06' W 062°04'1010.4
2016-Jul-07 00:33N 16°59' W 062°11'10 9.9
2016-Jul-06 23:33N 16°52' W 062°19'1010.0
2016-Jul-06 22:33N 16°45' W 062°27'1010.1
2016-Jul-06 21:33N 16°39' W 062°34'1010.1
2016-Jul-06 20:33N 16°32' W 062°42'  

Dump ship's entire track history